createdAt,value
2018-12-07T00:00:30.888Z,20.32
2018-12-07T00:01:05.927Z,20.12
2018-12-07T00:01:40.779Z,19.42
2018-12-07T00:02:16.819Z,19.73
2018-12-07T00:02:51.580Z,19.35
2018-12-07T00:03:26.379Z,18.12
2018-12-07T00:04:01.179Z,18.35
2018-12-07T00:04:36.200Z,17.55
2018-12-07T00:05:10.899Z,17.85
2018-12-07T00:05:45.659Z,17.80
2018-12-07T00:06:20.440Z,20.10
2018-12-07T00:06:55.222Z,20.27
2018-12-07T00:07:30.120Z,19.67
2018-12-07T00:08:04.859Z,19.50
2018-12-07T00:08:39.580Z,19.73
2018-12-07T00:09:14.366Z,19.67
2018-12-07T00:09:49.259Z,16.50
2018-12-07T00:10:24.299Z,17.95
2018-12-07T00:10:59.199Z,16.55
2018-12-07T00:11:33.921Z,19.23
2018-12-07T00:12:08.699Z,16.95
2018-12-07T00:12:43.499Z,19.32
2018-12-07T00:13:18.919Z,18.98
2018-12-07T00:13:53.703Z,18.95
2018-12-07T00:14:28.420Z,18.00
2018-12-07T00:15:03.340Z,16.40
2018-12-07T00:15:38.279Z,18.25
2018-12-07T00:16:13.120Z,17.02
2018-12-07T00:16:47.939Z,18.00
2018-12-07T00:17:22.699Z,18.55
2018-12-07T00:17:57.479Z,18.65
2018-12-07T00:18:32.421Z,18.30
2018-12-07T00:19:07.179Z,17.55
2018-12-07T00:19:47.852Z,18.80
2018-12-07T00:20:18.898Z,16.57
2018-12-07T00:20:53.659Z,14.07
2018-12-07T00:21:28.319Z,15.48
2018-12-07T00:22:03.039Z,15.93
2018-12-07T00:22:37.838Z,16.42
2018-12-07T00:23:12.579Z,17.23
2018-12-07T00:23:47.379Z,17.92
2018-12-07T00:24:22.118Z,16.42
2018-12-07T00:24:57.019Z,14.45
2018-12-07T00:25:31.839Z,16.60
2018-12-07T00:26:06.538Z,13.03
2018-12-07T00:26:41.280Z,16.30
2018-12-07T00:27:16.079Z,8.95
2018-12-07T00:27:50.841Z,13.88
2018-12-07T00:28:25.639Z,14.93
2018-12-07T00:29:00.479Z,14.83
2018-12-07T00:29:35.199Z,16.15
2018-12-07T00:30:10.059Z,13.08
2018-12-07T00:30:44.819Z,14.28
2018-12-07T00:31:19.639Z,15.53
2018-12-07T00:31:54.847Z,16.65
2018-12-07T00:32:29.578Z,16.35
2018-12-07T00:33:04.727Z,15.25
2018-12-07T00:33:39.679Z,15.55
2018-12-07T00:34:14.719Z,15.25
2018-12-07T00:34:49.499Z,18.07
2018-12-07T00:35:24.239Z,15.90
2018-12-07T00:35:59.319Z,17.48
2018-12-07T00:36:34.166Z,16.87
2018-12-07T00:37:08.859Z,16.42
2018-12-07T00:37:43.739Z,15.88
2018-12-07T00:38:18.541Z,13.80
2018-12-07T00:38:53.339Z,16.05
2018-12-07T00:39:28.179Z,17.87
2018-12-07T00:40:03.159Z,15.58
2018-12-07T00:40:37.999Z,14.18
2018-12-07T00:41:12.851Z,14.90
2018-12-07T00:41:47.719Z,15.88
2018-12-07T00:42:22.579Z,16.97
2018-12-07T00:42:57.378Z,15.05
2018-12-07T00:43:32.139Z,16.93
2018-12-07T00:44:06.899Z,14.53
2018-12-07T00:44:41.758Z,14.18
2018-12-07T00:45:16.541Z,13.65
2018-12-07T00:45:51.467Z,16.10
2018-12-07T00:46:26.319Z,14.18
2018-12-07T00:47:00.979Z,14.85
2018-12-07T00:47:35.759Z,15.72
2018-12-07T00:48:10.720Z,16.20
2018-12-07T00:48:45.422Z,15.43
2018-12-07T00:49:20.201Z,16.45
2018-12-07T00:49:55.038Z,14.13
2018-12-07T00:50:29.758Z,14.90
2018-12-07T00:51:04.599Z,16.00
2018-12-07T00:51:39.238Z,15.83
2018-12-07T00:52:13.999Z,14.43
2018-12-07T00:52:48.701Z,14.83
2018-12-07T00:53:23.659Z,14.55
2018-12-07T00:53:58.480Z,16.00
2018-12-07T00:54:33.398Z,13.58
2018-12-07T00:55:17.619Z,14.65
2018-12-07T00:55:52.359Z,16.65
2018-12-07T00:56:27.159Z,14.05
2018-12-07T00:57:01.979Z,14.50
2018-12-07T00:57:36.599Z,16.77
2018-12-07T00:58:11.307Z,16.80
2018-12-07T00:58:46.058Z,17.77
2018-12-07T00:59:20.819Z,17.87
2018-12-07T00:59:55.539Z,16.55
2018-12-07T01:00:30.419Z,16.48
2018-12-07T01:01:05.329Z,16.82
2018-12-07T01:01:40.259Z,16.97
2018-12-07T01:02:15.147Z,17.57
2018-12-07T01:02:50.079Z,19.32
2018-12-07T01:03:25.179Z,16.62
2018-12-07T01:04:00.239Z,18.35
2018-12-07T01:04:35.198Z,18.65
2018-12-07T01:05:10.119Z,17.10
2018-12-07T01:05:45.118Z,16.60
2018-12-07T01:06:19.959Z,16.82
2018-12-07T01:06:54.719Z,19.30
2018-12-07T01:07:29.499Z,19.70
2018-12-07T01:08:04.401Z,19.80
2018-12-07T01:08:39.200Z,20.02
2018-12-07T01:09:14.199Z,18.70
2018-12-07T01:09:49.161Z,13.85
2018-12-07T01:10:24.002Z,17.77
2018-12-07T01:10:58.879Z,21.37
2018-12-07T01:11:33.899Z,20.88
2018-12-07T01:12:08.819Z,21.17
2018-12-07T01:12:43.499Z,20.77
2018-12-07T01:13:18.239Z,22.25
2018-12-07T01:13:52.999Z,20.60
2018-12-07T01:14:27.759Z,21.65
2018-12-07T01:15:02.599Z,20.50
2018-12-07T01:15:37.359Z,20.60
2018-12-07T01:16:12.318Z,17.35
2018-12-07T01:16:47.179Z,20.15
2018-12-07T01:17:22.079Z,16.77
2018-12-07T01:17:57.107Z,22.55
2018-12-07T01:18:31.959Z,21.33
2018-12-07T01:19:06.779Z,21.60
2018-12-07T01:19:41.543Z,20.77
2018-12-07T01:20:16.618Z,22.00
2018-12-07T01:20:51.579Z,22.22
2018-12-07T01:21:26.539Z,20.43
2018-12-07T01:22:01.540Z,21.62
2018-12-07T01:22:36.519Z,18.07
2018-12-07T01:23:11.399Z,21.25
2018-12-07T01:23:46.339Z,21.10
2018-12-07T01:24:21.098Z,21.12
2018-12-07T01:24:55.819Z,24.90
2018-12-07T01:25:30.699Z,23.10
2018-12-07T01:26:05.460Z,20.15
2018-12-07T01:26:40.559Z,23.18
2018-12-07T01:27:15.279Z,22.32
2018-12-07T01:27:50.259Z,20.95
2018-12-07T01:28:25.168Z,22.77
2018-12-07T01:29:00.159Z,21.85
2018-12-07T01:29:34.959Z,20.52
2018-12-07T01:30:10.019Z,22.30
2018-12-07T01:30:44.861Z,20.65
2018-12-07T01:31:19.847Z,22.13
2018-12-07T01:31:55.099Z,20.20
2018-12-07T01:32:30.039Z,19.42
2018-12-07T01:33:04.859Z,22.20
2018-12-07T01:33:39.580Z,18.57
2018-12-07T01:34:14.339Z,19.23
2018-12-07T01:34:49.139Z,18.15
2018-12-07T01:35:24.238Z,20.02
2018-12-07T01:35:59.239Z,18.95
2018-12-07T01:36:34.221Z,12.88
2018-12-07T01:37:09.138Z,18.35
2018-12-07T01:37:44.019Z,18.00
2018-12-07T01:38:19.055Z,20.08
2018-12-07T01:38:54.099Z,19.45
2018-12-07T01:39:28.978Z,18.00
2018-12-07T01:40:04.235Z,17.87
2018-12-07T01:40:39.139Z,18.55
2018-12-07T01:41:13.999Z,20.52
2018-12-07T01:41:48.959Z,15.13
2018-12-07T01:42:23.999Z,18.80
2018-12-07T01:42:58.927Z,19.67
2018-12-07T01:43:33.807Z,17.65
2018-12-07T01:44:08.640Z,18.30
2018-12-07T01:44:43.339Z,15.60
2018-12-07T01:45:18.199Z,15.98
2018-12-07T01:45:52.959Z,15.20
2018-12-07T01:46:27.659Z,18.30
2018-12-07T01:47:02.422Z,18.67
2018-12-07T01:47:41.519Z,16.62
2018-12-07T01:48:16.440Z,18.62
2018-12-07T01:48:51.359Z,18.85
2018-12-07T01:49:26.287Z,17.87
2018-12-07T01:50:01.139Z,18.12
2018-12-07T01:50:35.978Z,18.35
2018-12-07T01:51:10.922Z,19.40
2018-12-07T01:51:45.939Z,19.30
2018-12-07T01:52:20.679Z,21.25
2018-12-07T01:52:55.507Z,21.80
2018-12-07T01:53:30.379Z,18.92
2018-12-07T01:54:05.306Z,16.90
2018-12-07T01:54:40.199Z,18.48
2018-12-07T01:55:15.098Z,15.75
2018-12-07T01:55:49.758Z,18.85
2018-12-07T01:56:24.782Z,14.60
2018-12-07T01:56:59.498Z,13.62
2018-12-07T01:57:34.298Z,16.23
2018-12-07T01:58:09.486Z,16.75
2018-12-07T01:58:44.378Z,15.98
2018-12-07T01:59:19.418Z,17.70
2018-12-07T01:59:54.280Z,18.10
2018-12-07T02:00:29.219Z,17.62
2018-12-07T02:01:04.099Z,19.55
2018-12-07T02:01:38.918Z,18.27
2018-12-07T02:02:13.619Z,20.40
2018-12-07T02:02:48.438Z,20.25
2018-12-07T02:03:23.378Z,18.48
2018-12-07T02:03:58.167Z,20.17
2018-12-07T02:04:32.940Z,20.65
2018-12-07T02:05:07.966Z,19.27
2018-12-07T02:05:42.921Z,20.97
2018-12-07T02:06:17.538Z,17.67
2018-12-07T02:06:52.278Z,19.62
2018-12-07T02:07:32.538Z,20.10
2018-12-07T02:08:07.422Z,16.70
2018-12-07T02:08:42.320Z,17.42
2018-12-07T02:09:17.239Z,19.12
2018-12-07T02:09:52.098Z,19.55
2018-12-07T02:10:26.798Z,17.70
2018-12-07T02:11:01.478Z,18.98
2018-12-07T02:11:36.578Z,15.88
2018-12-07T02:12:11.578Z,16.40
2018-12-07T02:12:46.318Z,17.30
2018-12-07T02:13:21.078Z,20.02
2018-12-07T02:13:55.898Z,19.07
2018-12-07T02:14:30.799Z,19.42
2018-12-07T02:15:06.280Z,17.37
2018-12-07T02:15:41.226Z,17.67
2018-12-07T02:16:16.101Z,18.27
2018-12-07T02:16:50.918Z,17.23
2018-12-07T02:17:25.966Z,12.37
2018-12-07T02:18:00.979Z,14.20
2018-12-07T02:18:35.997Z,15.98
2018-12-07T02:19:11.057Z,16.70
2018-12-07T02:19:45.817Z,16.48
2018-12-07T02:20:20.677Z,19.52
2018-12-07T02:20:55.677Z,18.30
2018-12-07T02:21:30.617Z,14.87
2018-12-07T02:22:05.400Z,20.17
2018-12-07T02:22:40.339Z,14.23
2018-12-07T02:23:15.258Z,19.20
2018-12-07T02:23:50.217Z,18.15
2018-12-07T02:24:25.399Z,18.20
2018-12-07T02:25:00.345Z,18.10
2018-12-07T02:25:35.337Z,16.48
2018-12-07T02:26:10.198Z,19.12
2018-12-07T02:26:45.078Z,16.87
2018-12-07T02:27:19.957Z,16.73
2018-12-07T02:28:00.577Z,18.77
2018-12-07T02:28:35.377Z,17.85
2018-12-07T02:29:10.278Z,16.23
2018-12-07T02:29:45.258Z,20.23
2018-12-07T02:30:20.226Z,17.73
2018-12-07T02:30:55.067Z,17.87
2018-12-07T02:31:30.018Z,17.70
2018-12-07T02:32:04.938Z,17.05
2018-12-07T02:32:39.799Z,17.60
2018-12-07T02:33:14.758Z,16.80
2018-12-07T02:33:49.660Z,19.10
2018-12-07T02:34:24.418Z,20.25
2018-12-07T02:34:59.378Z,17.85
2018-12-07T02:35:34.237Z,18.02
2018-12-07T02:36:09.178Z,17.62
2018-12-07T02:36:44.238Z,16.67
2018-12-07T02:37:19.098Z,15.72
2018-12-07T02:37:53.957Z,17.32
2018-12-07T02:38:28.977Z,16.17
2018-12-07T02:39:04.898Z,16.77
2018-12-07T02:39:39.943Z,15.00
2018-12-07T02:40:15.168Z,17.80
2018-12-07T02:40:50.158Z,15.78
2018-12-07T02:41:25.277Z,15.70
2018-12-07T02:42:00.586Z,12.05
2018-12-07T02:42:35.538Z,13.13
2018-12-07T02:43:10.338Z,16.55
2018-12-07T02:43:45.318Z,17.25
2018-12-07T02:44:20.022Z,14.98
2018-12-07T02:44:54.960Z,17.98
2018-12-07T02:45:29.877Z,15.40
2018-12-07T02:46:04.851Z,14.33
2018-12-07T02:46:39.859Z,13.72
2018-12-07T02:47:14.759Z,13.45
2018-12-07T02:47:49.917Z,12.05
2018-12-07T02:48:24.798Z,12.33
2018-12-07T02:48:59.858Z,15.20
2018-12-07T02:49:34.858Z,10.95
2018-12-07T02:50:09.738Z,13.75
2018-12-07T02:50:44.737Z,13.10
2018-12-07T02:51:19.540Z,13.62
2018-12-07T02:51:54.558Z,15.30
2018-12-07T02:52:29.637Z,14.47
2018-12-07T02:53:04.746Z,14.68
2018-12-07T02:53:39.699Z,12.70
2018-12-07T02:54:14.638Z,13.50
2018-12-07T02:54:49.537Z,11.65
2018-12-07T02:55:24.517Z,13.83
2018-12-07T02:55:59.437Z,14.00
2018-12-07T02:56:34.278Z,16.65
2018-12-07T02:57:08.957Z,14.95
2018-12-07T02:57:44.139Z,14.45
2018-12-07T02:58:18.999Z,15.63
2018-12-07T02:58:53.797Z,16.32
2018-12-07T02:59:28.697Z,16.77
2018-12-07T03:00:03.597Z,15.35
2018-12-07T03:00:38.684Z,15.03
2018-12-07T03:01:13.798Z,14.07
2018-12-07T03:01:48.658Z,13.03
2018-12-07T03:02:23.607Z,11.88
2018-12-07T03:02:58.397Z,13.38
2018-12-07T03:03:33.224Z,14.47
2018-12-07T03:04:08.199Z,9.88
2018-12-07T03:04:42.877Z,10.43
2018-12-07T03:05:17.885Z,9.00
2018-12-07T03:05:52.729Z,11.85
2018-12-07T03:06:27.698Z,13.50
2018-12-07T03:07:02.516Z,14.33
2018-12-07T03:07:37.576Z,15.68
2018-12-07T03:08:12.317Z,13.65
2018-12-07T03:08:47.057Z,13.43
2018-12-07T03:09:21.778Z,13.10
2018-12-07T03:09:56.657Z,9.30
2018-12-07T03:10:31.678Z,6.42
2018-12-07T03:11:06.677Z,13.20
2018-12-07T03:11:41.598Z,11.85
2018-12-07T03:12:16.418Z,13.35
2018-12-07T03:12:51.137Z,10.95
2018-12-07T03:13:26.199Z,13.68
2018-12-07T03:14:01.081Z,12.23
2018-12-07T03:14:35.957Z,14.35
2018-12-07T03:15:10.806Z,13.50
2018-12-07T03:15:45.537Z,11.18
2018-12-07T03:16:20.337Z,14.33
2018-12-07T03:16:55.565Z,13.20
2018-12-07T03:17:30.655Z,11.45
2018-12-07T03:18:05.678Z,9.53
2018-12-07T03:18:40.677Z,12.80
2018-12-07T03:19:15.565Z,13.53
2018-12-07T03:19:50.418Z,14.33
2018-12-07T03:20:25.277Z,11.70
2018-12-07T03:21:00.406Z,13.70
2018-12-07T03:21:35.278Z,12.90
2018-12-07T03:22:10.237Z,14.47
2018-12-07T03:22:45.338Z,14.83
2018-12-07T03:23:20.417Z,8.63
2018-12-07T03:23:55.217Z,11.95
2018-12-07T03:24:29.917Z,12.10
2018-12-07T03:25:04.937Z,11.40
2018-12-07T03:25:39.865Z,13.08
2018-12-07T03:26:14.597Z,13.05
2018-12-07T03:26:49.498Z,15.15
2018-12-07T03:27:24.439Z,13.48
2018-12-07T03:27:59.498Z,11.78
2018-12-07T03:28:34.477Z,8.23
2018-12-07T03:29:09.258Z,13.58
2018-12-07T03:29:44.036Z,12.85
2018-12-07T03:30:19.178Z,12.75
2018-12-07T03:30:53.878Z,12.25
2018-12-07T03:31:28.820Z,12.05
2018-12-07T03:32:03.661Z,12.43
2018-12-07T03:32:38.818Z,11.75
2018-12-07T03:33:13.658Z,12.73
2018-12-07T03:33:48.539Z,14.00
2018-12-07T03:34:23.517Z,10.48
2018-12-07T03:34:58.405Z,8.20
2018-12-07T03:35:33.218Z,10.82
2018-12-07T03:36:08.338Z,12.75
2018-12-07T03:36:43.117Z,11.33
2018-12-07T03:37:17.917Z,11.85
2018-12-07T03:37:52.736Z,10.98
2018-12-07T03:38:27.937Z,12.05
2018-12-07T03:39:04.360Z,12.15
2018-12-07T03:39:39.185Z,14.53
2018-12-07T03:40:14.060Z,13.45
2018-12-07T03:40:48.917Z,9.10
2018-12-07T03:41:23.778Z,11.30
2018-12-07T03:41:58.537Z,12.05
2018-12-07T03:42:33.365Z,12.68
2018-12-07T03:43:08.338Z,12.75
2018-12-07T03:43:43.197Z,13.50
2018-12-07T03:44:18.020Z,13.60
2018-12-07T03:44:52.977Z,9.78
2018-12-07T03:45:27.757Z,12.37
2018-12-07T03:46:02.617Z,11.38
2018-12-07T03:46:37.558Z,8.85
2018-12-07T03:47:12.520Z,12.68
2018-12-07T03:47:47.398Z,9.73
2018-12-07T03:48:22.297Z,7.47
2018-12-07T03:48:57.118Z,11.80
2018-12-07T03:49:31.985Z,9.30
2018-12-07T03:50:07.003Z,11.85
2018-12-07T03:50:41.879Z,10.43
2018-12-07T03:51:16.736Z,13.90
2018-12-07T03:51:51.677Z,12.40
2018-12-07T03:52:26.417Z,13.90
2018-12-07T03:53:01.277Z,13.18
2018-12-07T03:53:36.277Z,12.55
2018-12-07T03:54:11.019Z,10.88
2018-12-07T03:54:46.037Z,11.18
2018-12-07T03:55:21.257Z,7.90
2018-12-07T03:55:56.298Z,6.53
2018-12-07T03:56:31.037Z,10.35
2018-12-07T03:57:05.818Z,7.95
2018-12-07T03:57:40.973Z,9.93
2018-12-07T03:58:15.959Z,9.90
2018-12-07T03:58:51.177Z,7.47
2018-12-07T03:59:26.118Z,10.78
2018-12-07T04:00:01.038Z,10.60
2018-12-07T04:00:35.922Z,12.13
2018-12-07T04:01:11.117Z,12.50
2018-12-07T04:01:45.903Z,10.05
2018-12-07T04:02:20.917Z,9.95
2018-12-07T04:02:55.837Z,11.00
2018-12-07T04:03:30.682Z,8.35
2018-12-07T04:04:05.558Z,10.68
2018-12-07T04:04:40.338Z,11.43
2018-12-07T04:05:15.398Z,12.00
2018-12-07T04:05:50.399Z,13.65
2018-12-07T04:06:25.277Z,9.85
2018-12-07T04:07:00.258Z,11.12
2018-12-07T04:07:35.277Z,10.25
2018-12-07T04:08:10.240Z,13.20
2018-12-07T04:08:44.977Z,13.72
2018-12-07T04:09:20.101Z,9.10
2018-12-07T04:09:54.898Z,11.70
2018-12-07T04:10:29.937Z,14.50
2018-12-07T04:11:04.718Z,12.55
2018-12-07T04:11:39.697Z,11.22
2018-12-07T04:12:14.518Z,9.73
2018-12-07T04:12:49.545Z,8.15
2018-12-07T04:13:24.617Z,10.30
2018-12-07T04:13:59.577Z,12.47
2018-12-07T04:14:34.597Z,12.30
2018-12-07T04:15:09.616Z,11.90
2018-12-07T04:15:44.845Z,11.18
2018-12-07T04:16:19.645Z,10.30
2018-12-07T04:16:54.590Z,10.70
2018-12-07T04:17:29.468Z,11.38
2018-12-07T04:18:04.586Z,10.82
2018-12-07T04:18:39.374Z,12.13
2018-12-07T04:19:14.547Z,11.18
2018-12-07T04:19:49.587Z,9.75
2018-12-07T04:20:24.506Z,11.53
2018-12-07T04:20:59.335Z,10.15
2018-12-07T04:21:34.454Z,9.73
2018-12-07T04:22:09.634Z,11.68
2018-12-07T04:22:44.654Z,10.25
2018-12-07T04:23:19.574Z,12.13
2018-12-07T04:23:54.507Z,12.15
2018-12-07T04:24:29.346Z,10.35
2018-12-07T04:25:04.408Z,10.58
2018-12-07T04:25:39.355Z,9.95
2018-12-07T04:26:14.557Z,9.58
2018-12-07T04:26:49.434Z,7.58
2018-12-07T04:27:24.383Z,9.45
2018-12-07T04:27:59.566Z,8.40
2018-12-07T04:28:36.160Z,9.13
2018-12-07T04:29:11.247Z,9.10
2018-12-07T04:29:46.215Z,8.95
2018-12-07T04:30:27.468Z,9.43
2018-12-07T04:31:02.349Z,9.15
2018-12-07T04:31:37.147Z,9.28
2018-12-07T04:32:12.009Z,10.63
2018-12-07T04:32:47.270Z,10.98
2018-12-07T04:33:22.228Z,8.58
2018-12-07T04:33:57.169Z,7.47
2018-12-07T04:34:32.046Z,9.28
2018-12-07T04:35:07.114Z,10.18
2018-12-07T04:35:42.034Z,9.23
2018-12-07T04:36:16.933Z,10.05
2018-12-07T04:36:51.833Z,9.70
2018-12-07T04:37:26.553Z,7.83
2018-12-07T04:38:01.378Z,8.20
2018-12-07T04:38:36.415Z,8.43
2018-12-07T04:39:11.313Z,9.33
2018-12-07T04:39:46.192Z,9.88
2018-12-07T04:40:21.102Z,8.18
2018-12-07T04:40:56.255Z,9.40
2018-12-07T04:41:31.012Z,9.68
2018-12-07T04:42:05.773Z,9.53
2018-12-07T04:42:40.653Z,8.85
2018-12-07T04:43:15.473Z,8.53
2018-12-07T04:43:50.319Z,8.65
2018-12-07T04:44:25.093Z,6.15
2018-12-07T04:44:59.932Z,9.45
2018-12-07T04:45:35.395Z,8.28
2018-12-07T04:46:10.477Z,6.25
2018-12-07T04:46:45.354Z,8.83
2018-12-07T04:47:20.134Z,8.00
2018-12-07T04:47:54.973Z,9.48
2018-12-07T04:48:29.794Z,8.33
2018-12-07T04:49:04.733Z,7.70
2018-12-07T04:49:39.454Z,9.65
2018-12-07T04:50:14.453Z,10.03
2018-12-07T04:50:49.233Z,8.03
2018-12-07T04:51:24.177Z,9.80
2018-12-07T04:51:58.893Z,10.60
2018-12-07T04:52:33.641Z,10.40
2018-12-07T04:53:08.453Z,11.18
2018-12-07T04:53:43.214Z,9.75
2018-12-07T04:54:18.113Z,9.90
2018-12-07T04:54:52.893Z,10.28
2018-12-07T04:55:27.713Z,11.50
2018-12-07T04:56:02.612Z,10.72
2018-12-07T04:56:37.353Z,10.98
2018-12-07T04:57:12.178Z,11.08
2018-12-07T04:57:46.812Z,10.75
2018-12-07T04:58:21.620Z,11.70
2018-12-07T04:58:56.434Z,9.78
2018-12-07T04:59:31.672Z,12.35
2018-12-07T05:00:08.093Z,10.65
2018-12-07T05:00:42.973Z,10.95
2018-12-07T05:01:17.773Z,11.50
2018-12-07T05:01:52.694Z,11.85
2018-12-07T05:02:27.826Z,10.13
2018-12-07T05:03:02.678Z,11.05
2018-12-07T05:03:37.553Z,11.25
2018-12-07T05:04:12.333Z,10.20
2018-12-07T05:04:47.221Z,11.10
2018-12-07T05:05:22.334Z,8.28
2018-12-07T05:05:57.173Z,10.40
2018-12-07T05:06:32.073Z,8.80
2018-12-07T05:07:07.193Z,10.90
2018-12-07T05:07:42.038Z,10.88
2018-12-07T05:08:16.913Z,11.68
2018-12-07T05:08:51.672Z,9.88
2018-12-07T05:09:26.665Z,7.45
2018-12-07T05:10:01.421Z,10.30
2018-12-07T05:10:36.153Z,8.88
2018-12-07T05:11:10.873Z,7.83
2018-12-07T05:11:45.733Z,10.00
2018-12-07T05:12:20.893Z,10.32
2018-12-07T05:12:55.843Z,9.83
2018-12-07T05:13:30.845Z,11.28
2018-12-07T05:14:05.905Z,9.78
2018-12-07T05:14:40.824Z,10.68
2018-12-07T05:15:17.183Z,11.03
2018-12-07T05:15:51.959Z,10.32
2018-12-07T05:16:26.739Z,13.55
2018-12-07T05:17:01.771Z,11.28
2018-12-07T05:17:36.651Z,10.05
2018-12-07T05:18:11.383Z,10.23
2018-12-07T05:18:46.117Z,10.90
2018-12-07T05:19:20.985Z,10.70
2018-12-07T05:19:55.856Z,11.12
2018-12-07T05:20:30.677Z,12.10
2018-12-07T05:21:05.538Z,11.97
2018-12-07T05:21:40.437Z,12.47
2018-12-07T05:22:15.677Z,11.95
2018-12-07T05:22:50.666Z,11.88
2018-12-07T05:23:25.425Z,12.55
2018-12-07T05:24:00.278Z,12.50
2018-12-07T05:24:35.138Z,12.37
2018-12-07T05:25:09.938Z,12.03
2018-12-07T05:25:45.298Z,12.53
2018-12-07T05:26:20.433Z,12.45
2018-12-07T05:26:55.391Z,13.20
2018-12-07T05:27:30.353Z,9.28
2018-12-07T05:28:05.152Z,11.83
2018-12-07T05:28:40.574Z,10.85
2018-12-07T05:29:15.353Z,10.72
2018-12-07T05:29:50.593Z,11.15
2018-12-07T05:30:27.588Z,11.55
2018-12-07T05:31:02.357Z,11.22
2018-12-07T05:31:37.292Z,11.57
2018-12-07T05:32:12.275Z,9.78
2018-12-07T05:32:47.352Z,10.55
2018-12-07T05:33:22.172Z,11.57
2018-12-07T05:33:57.593Z,10.43
2018-12-07T05:34:32.555Z,9.13
2018-12-07T05:35:07.592Z,11.63
2018-12-07T05:35:42.648Z,10.98
2018-12-07T05:36:17.390Z,10.40
2018-12-07T05:36:52.432Z,10.53
2018-12-07T05:37:27.089Z,10.88
2018-12-07T05:38:01.850Z,10.55
2018-12-07T05:38:36.789Z,11.28
2018-12-07T05:39:11.736Z,9.98
2018-12-07T05:39:46.612Z,10.98
2018-12-07T05:40:21.449Z,11.05
2018-12-07T05:40:56.377Z,12.05
2018-12-07T05:41:31.189Z,9.95
2018-12-07T05:42:05.949Z,9.53
2018-12-07T05:42:40.989Z,10.82
2018-12-07T05:43:16.349Z,9.38
2018-12-07T05:43:57.603Z,10.85
2018-12-07T05:44:32.531Z,8.88
2018-12-07T05:45:07.629Z,11.12
2018-12-07T05:45:42.350Z,10.93
2018-12-07T05:46:17.389Z,11.30
2018-12-07T05:46:52.309Z,10.32
2018-12-07T05:47:27.292Z,10.00
2018-12-07T05:48:02.223Z,9.78
2018-12-07T05:48:37.049Z,10.48
2018-12-07T05:49:12.069Z,11.55
2018-12-07T05:49:46.829Z,10.60
2018-12-07T05:50:21.790Z,9.58
2018-12-07T05:50:56.650Z,9.23
2018-12-07T05:51:31.449Z,9.15
2018-12-07T05:52:06.352Z,9.55
2018-12-07T05:52:40.989Z,10.63
2018-12-07T05:53:15.790Z,10.10
2018-12-07T05:53:50.589Z,12.10
2018-12-07T05:54:25.490Z,10.50
2018-12-07T05:55:00.189Z,7.87
2018-12-07T05:55:35.031Z,10.90
2018-12-07T05:56:09.848Z,10.58
2018-12-07T05:56:44.690Z,11.60
2018-12-07T05:57:19.828Z,11.28
2018-12-07T05:57:54.649Z,11.12
2018-12-07T05:58:29.429Z,11.93
2018-12-07T05:59:04.409Z,11.28
2018-12-07T05:59:39.289Z,9.65
2018-12-07T06:00:14.091Z,10.03
2018-12-07T06:00:48.877Z,9.80
2018-12-07T06:01:23.688Z,9.85
2018-12-07T06:01:58.773Z,8.15
2018-12-07T06:02:33.629Z,10.48
2018-12-07T06:03:08.471Z,7.33
2018-12-07T06:03:43.349Z,9.65
2018-12-07T06:04:18.169Z,8.13
2018-12-07T06:04:52.996Z,9.28
2018-12-07T06:05:27.729Z,9.83
2018-12-07T06:06:02.668Z,9.35
2018-12-07T06:06:37.369Z,8.63
2018-12-07T06:07:12.089Z,9.98
2018-12-07T06:07:47.117Z,10.40
2018-12-07T06:08:21.948Z,10.35
2018-12-07T06:08:56.729Z,9.60
2018-12-07T06:09:31.548Z,9.15
2018-12-07T06:10:06.648Z,9.70
2018-12-07T06:10:41.448Z,10.18
2018-12-07T06:11:16.229Z,9.83
2018-12-07T06:11:50.931Z,10.28
2018-12-07T06:12:26.049Z,10.40
2018-12-07T06:13:00.693Z,10.80
2018-12-07T06:13:35.208Z,9.20
2018-12-07T06:14:10.108Z,10.45
2018-12-07T06:14:45.009Z,10.18
2018-12-07T06:15:20.028Z,10.70
2018-12-07T06:15:54.849Z,9.48
2018-12-07T06:16:29.749Z,10.68
2018-12-07T06:17:04.708Z,10.55
2018-12-07T06:17:39.469Z,10.75
2018-12-07T06:18:14.248Z,10.68
2018-12-07T06:18:49.068Z,11.35
2018-12-07T06:19:23.848Z,9.83
2018-12-07T06:19:58.899Z,11.28
2018-12-07T06:20:33.789Z,10.23
2018-12-07T06:21:08.588Z,10.65
2018-12-07T06:21:43.448Z,12.55
2018-12-07T06:22:18.349Z,10.13
2018-12-07T06:22:53.348Z,11.85
2018-12-07T06:23:28.109Z,11.22
2018-12-07T06:24:02.987Z,10.60
2018-12-07T06:24:38.008Z,10.80
2018-12-07T06:25:12.851Z,12.05
2018-12-07T06:25:47.688Z,12.05
2018-12-07T06:26:22.668Z,11.78
2018-12-07T06:26:57.680Z,10.28
2018-12-07T06:27:32.491Z,11.28
2018-12-07T06:28:07.309Z,10.93
2018-12-07T06:28:42.168Z,13.25
2018-12-07T06:29:17.048Z,11.65
2018-12-07T06:29:52.068Z,11.97
2018-12-07T06:30:26.948Z,10.20
2018-12-07T06:31:01.808Z,12.55
2018-12-07T06:31:36.748Z,14.15
2018-12-07T06:32:11.693Z,13.48
2018-12-07T06:32:46.608Z,12.98
2018-12-07T06:33:21.367Z,13.03
2018-12-07T06:33:56.252Z,14.30
2018-12-07T06:34:30.968Z,14.58
2018-12-07T06:35:06.030Z,15.28
2018-12-07T06:35:40.767Z,15.80
2018-12-07T06:36:15.647Z,15.85
2018-12-07T06:36:50.508Z,16.97
2018-12-07T06:37:25.408Z,14.63
2018-12-07T06:38:00.208Z,13.78
2018-12-07T06:38:35.107Z,16.85
2018-12-07T06:39:11.288Z,16.40
2018-12-07T06:39:46.230Z,15.25
2018-12-07T06:40:21.107Z,15.72
2018-12-07T06:40:55.968Z,16.73
2018-12-07T06:41:31.048Z,15.40
2018-12-07T06:42:05.847Z,12.47
2018-12-07T06:42:40.627Z,14.05
2018-12-07T06:43:15.527Z,15.45
2018-12-07T06:43:50.267Z,11.38
2018-12-07T06:44:25.068Z,15.10
2018-12-07T06:44:59.989Z,13.40
2018-12-07T06:45:35.311Z,13.10
2018-12-07T06:46:10.187Z,15.28
2018-12-07T06:46:44.988Z,13.45
2018-12-07T06:47:19.687Z,14.83
2018-12-07T06:47:54.609Z,15.30
2018-12-07T06:48:29.567Z,15.85
2018-12-07T06:49:12.707Z,14.60
2018-12-07T06:49:47.569Z,15.98
2018-12-07T06:50:22.407Z,16.35
2018-12-07T06:50:57.368Z,15.80
2018-12-07T06:51:32.248Z,15.18
2018-12-07T06:52:07.152Z,15.98
2018-12-07T06:52:41.907Z,15.83
2018-12-07T06:53:16.687Z,15.00
2018-12-07T06:53:51.607Z,15.28
2018-12-07T06:54:26.507Z,14.68
2018-12-07T06:55:01.268Z,15.72
2018-12-07T06:55:36.510Z,14.55
2018-12-07T06:56:11.548Z,14.20
2018-12-07T06:56:46.387Z,14.05
2018-12-07T06:57:21.408Z,16.42
2018-12-07T06:57:56.308Z,15.98
2018-12-07T06:58:31.240Z,16.55
2018-12-07T06:59:06.108Z,14.60
2018-12-07T06:59:40.808Z,14.85
2018-12-07T07:00:15.609Z,14.40
2018-12-07T07:00:50.567Z,14.50
2018-12-07T07:01:25.368Z,13.40
2018-12-07T07:02:00.147Z,14.45
2018-12-07T07:02:34.948Z,15.03
2018-12-07T07:03:09.787Z,14.90
2018-12-07T07:03:44.569Z,15.40
2018-12-07T07:04:19.447Z,14.25
2018-12-07T07:04:54.268Z,14.45
2018-12-07T07:05:29.068Z,14.45
2018-12-07T07:06:04.067Z,14.35
2018-12-07T07:06:38.928Z,13.62
2018-12-07T07:07:13.784Z,14.43
2018-12-07T07:07:48.748Z,14.45
2018-12-07T07:08:23.608Z,16.70
2018-12-07T07:08:58.470Z,16.62
2018-12-07T07:09:33.487Z,14.83
2018-12-07T07:10:09.147Z,16.23
2018-12-07T07:10:43.969Z,16.37
2018-12-07T07:11:18.867Z,15.98
2018-12-07T07:11:53.768Z,16.35
2018-12-07T07:12:29.264Z,15.53
2018-12-07T07:13:04.390Z,15.10
2018-12-07T07:13:39.328Z,15.20
2018-12-07T07:14:14.307Z,15.58
2018-12-07T07:14:49.187Z,15.38
2018-12-07T07:15:23.988Z,14.93
2018-12-07T07:15:58.827Z,16.42
2018-12-07T07:16:33.669Z,12.78
2018-12-07T07:17:08.547Z,13.80
2018-12-07T07:17:43.287Z,14.45
2018-12-07T07:18:18.208Z,16.85
2018-12-07T07:18:53.108Z,15.13
2018-12-07T07:19:28.047Z,15.40
2018-12-07T07:20:03.048Z,16.85
2018-12-07T07:20:37.987Z,16.15
2018-12-07T07:21:12.908Z,14.73
2018-12-07T07:21:47.688Z,15.53
2018-12-07T07:22:22.507Z,16.45
2018-12-07T07:22:57.288Z,15.70
2018-12-07T07:23:32.348Z,14.80
2018-12-07T07:24:07.267Z,16.32
2018-12-07T07:24:41.937Z,13.15
2018-12-07T07:25:16.787Z,14.28
2018-12-07T07:25:51.567Z,14.47
2018-12-07T07:26:26.427Z,16.42
2018-12-07T07:27:07.507Z,14.70
2018-12-07T07:27:42.210Z,15.08
2018-12-07T07:28:17.127Z,14.85
2018-12-07T07:28:52.287Z,12.78
2018-12-07T07:29:27.167Z,13.62
2018-12-07T07:30:01.987Z,15.28
2018-12-07T07:30:36.930Z,12.55
2018-12-07T07:31:11.848Z,14.00
2018-12-07T07:31:46.908Z,13.80
2018-12-07T07:32:21.687Z,13.70
2018-12-07T07:32:56.548Z,12.93